Time;durP1;ratioP1;P1;durP2;ratioP2;P2;SDS_P1;SDS_P2;PMS_P1;PMS_P2;Temp;Humidity;BMP_temperature;BMP_pressure;BME280_temperature;BME280_humidity;BME280_pressure;Samples;Min_cycle;Max_cycle;Signal;HPM_P1;HPM_P2
2021/08/29 00:00:26;;;;;;;6.40;3.07;;;;;;;;;;5038096;28;20207;-79
2021/08/29 00:02:51;;;;;;;7.90;3.60;;;;;;;;;;5025757;28;20660;-79
2021/08/29 00:05:16;;;;;;;13.13;3.73;;;;;;;;;;5024369;28;20672;-79
2021/08/29 00:07:41;;;;;;;11.23;4.17;;;;;;;;;;5024281;28;20583;-79
2021/08/29 00:10:07;;;;;;;8.83;3.50;;;;;;;;;;5024648;28;20191;-79
2021/08/29 00:12:32;;;;;;;7.20;3.50;;;;;;;;;;5025763;28;20260;-79
2021/08/29 00:14:58;;;;;;;6.23;3.50;;;;;;;;;;5024607;28;20207;-79
2021/08/29 00:17:23;;;;;;;14.07;3.77;;;;;;;;;;5024337;28;20219;-79
2021/08/29 00:19:48;;;;;;;8.37;3.57;;;;;;;;;;5023442;28;20268;-79
2021/08/29 00:22:14;;;;;;;8.77;4.07;;;;;;;;;;5030589;28;20181;-79
2021/08/29 00:24:39;;;;;;;10.17;3.63;;;;;;;;;;5022977;28;20220;-79
2021/08/29 00:27:04;;;;;;;7.10;3.30;;;;;;;;;;5023529;28;20279;-79
2021/08/29 00:29:29;;;;;;;7.60;3.70;;;;;;;;;;5024211;28;20176;-79
2021/08/29 00:31:55;;;;;;;8.87;3.87;;;;;;;;;;5023435;28;20168;-79
2021/08/29 00:34:20;;;;;;;11.07;3.33;;;;;;;;;;5023775;28;20196;-79
2021/08/29 00:36:45;;;;;;;8.13;3.23;;;;;;;;;;5023727;28;20215;-79
2021/08/29 00:39:10;;;;;;;8.13;3.60;;;;;;;;;;5022350;28;20208;-79
2021/08/29 00:41:37;;;;;;;6.13;3.60;;;;;;;;;;5023471;28;20667;-79
2021/08/29 00:44:02;;;;;;;9.00;3.67;;;;;;;;;;5024619;28;20595;-79
2021/08/29 00:46:28;;;;;;;7.23;3.30;;;;;;;;;;5024123;28;20433;-79
2021/08/29 00:48:53;;;;;;;7.43;3.03;;;;;;;;;;5023075;28;20181;-79
2021/08/29 00:51:18;;;;;;;7.27;3.87;;;;;;;;;;5023453;28;20288;-79
2021/08/29 00:53:47;;;;;;;7.90;3.00;;;;;;;;;;5024041;28;20271;-79
2021/08/29 00:56:12;;;;;;;5.50;3.00;;;;;;;;;;5022857;28;20279;-79
2021/08/29 00:58:38;;;;;;;6.30;3.37;;;;;;;;;;5022678;28;20450;-79
2021/08/29 01:01:03;;;;;;;9.33;3.30;;;;;;;;;;5022855;28;20230;-79
2021/08/29 01:03:29;;;;;;;6.03;3.50;;;;;;;;;;5023985;28;20180;-79
2021/08/29 01:06:13;;;;;;;6.13;3.37;;;;;;;;;;5037565;28;20563;-79
2021/08/29 01:08:40;;;;;;;8.97;3.33;;;;;;;;;;5023087;28;20412;-79
2021/08/29 01:11:17;;;;;;;7.10;3.07;;;;;;;;;;5024242;28;20422;-79
2021/08/29 01:13:47;;;;;;;7.23;3.17;;;;;;;;;;5027714;28;20815;-79
2021/08/29 01:16:15;;;;;;;7.13;3.40;;;;;;;;;;5029042;28;20459;-79
2021/08/29 01:18:41;;;;;;;5.83;2.67;;;;;;;;;;5042788;28;20820;-79
2021/08/29 01:21:08;;;;;;;7.90;3.77;;;;;;;;;;5024156;28;20408;-79
2021/08/29 01:23:34;;;;;;;4.87;2.80;;;;;;;;;;5026734;28;20645;-79
2021/08/29 01:26:02;;;;;;;6.70;3.50;;;;;;;;;;5025439;28;20980;-79
2021/08/29 01:28:37;;;;;;;6.57;3.13;;;;;;;;;;5025719;28;20412;-79
2021/08/29 01:31:03;;;;;;;5.80;3.13;;;;;;;;;;5010759;28;20422;-79
2021/08/29 01:33:28;;;;;;;6.20;2.90;;;;;;;;;;5026966;28;20489;-79
2021/08/29 01:35:53;;;;;;;10.73;3.57;;;;;;;;;;5026316;28;20232;-79
2021/08/29 01:38:19;;;;;;;6.17;2.87;;;;;;;;;;5028034;28;20177;-79
2021/08/29 01:40:45;;;;;;;5.37;2.63;;;;;;;;;;5027967;28;20165;-79
2021/08/29 01:43:11;;;;;;;5.93;3.13;;;;;;;;;;5027025;28;20648;-78
2021/08/29 01:45:36;;;;;;;4.57;2.67;;;;;;;;;;5027498;28;20438;-79
2021/08/29 01:48:01;;;;;;;6.30;2.87;;;;;;;;;;5029546;28;20203;-79
2021/08/29 01:50:27;;;;;;;8.50;2.83;;;;;;;;;;5028182;28;20173;-79
2021/08/29 01:52:52;;;;;;;11.03;3.03;;;;;;;;;;5028912;28;20169;-79
2021/08/29 01:55:17;;;;;;;5.47;2.70;;;;;;;;;;5027944;28;20204;-79
2021/08/29 01:57:42;;;;;;;9.17;2.73;;;;;;;;;;5028488;28;20633;-79
2021/08/29 02:00:08;;;;;;;8.33;2.80;;;;;;;;;;5027081;28;20176;-79
2021/08/29 02:02:34;;;;;;;7.20;3.20;;;;;;;;;;5028169;28;20231;-79
2021/08/29 02:04:59;;;;;;;6.60;3.07;;;;;;;;;;5026376;28;20520;-79
2021/08/29 02:07:26;;;;;;;6.67;2.90;;;;;;;;;;5025642;28;20553;-79
2021/08/29 02:09:54;;;;;;;4.60;2.07;;;;;;;;;;5027014;28;20185;-79
2021/08/29 02:12:20;;;;;;;5.43;2.33;;;;;;;;;;5028112;28;20408;-79
2021/08/29 02:14:49;;;;;;;4.40;2.97;;;;;;;;;;5026938;28;20493;-79
2021/08/29 02:17:14;;;;;;;5.23;2.70;;;;;;;;;;5027227;28;20414;-79
2021/08/29 02:19:41;;;;;;;5.67;2.80;;;;;;;;;;5026416;28;20408;-79
2021/08/29 02:22:07;;;;;;;4.87;2.50;;;;;;;;;;5028059;28;20177;-79
2021/08/29 02:24:32;;;;;;;4.70;2.80;;;;;;;;;;5025381;28;20812;-79
2021/08/29 02:26:58;;;;;;;5.17;2.90;;;;;;;;;;5025954;28;20169;-79
2021/08/29 02:29:23;;;;;;;4.33;2.40;;;;;;;;;;5024583;28;20176;-79
2021/08/29 02:31:49;;;;;;;6.93;2.80;;;;;;;;;;5025153;28;20175;-79
2021/08/29 02:34:15;;;;;;;5.27;3.00;;;;;;;;;;5024830;28;20256;-79
2021/08/29 02:36:40;;;;;;;6.30;3.00;;;;;;;;;;5025655;28;20550;-79
2021/08/29 02:39:06;;;;;;;5.30;2.87;;;;;;;;;;5025813;28;20181;-79
2021/08/29 02:41:33;;;;;;;5.07;2.57;;;;;;;;;;5025378;28;20173;-80
2021/08/29 02:44:00;;;;;;;5.50;2.80;;;;;;;;;;5025885;28;20164;-80
2021/08/29 02:46:25;;;;;;;3.10;2.60;;;;;;;;;;5025332;28;20412;-80
2021/08/29 02:48:51;;;;;;;4.47;2.70;;;;;;;;;;5025508;28;20450;-80
2021/08/29 02:51:17;;;;;;;6.23;2.87;;;;;;;;;;5024885;28;20182;-79
2021/08/29 02:53:42;;;;;;;6.47;2.97;;;;;;;;;;5024503;28;20173;-80
2021/08/29 02:56:08;;;;;;;10.20;3.10;;;;;;;;;;5024053;28;20201;-80
2021/08/29 02:58:36;;;;;;;4.10;2.40;;;;;;;;;;5025358;28;20181;-80
2021/08/29 03:01:02;;;;;;;7.00;3.13;;;;;;;;;;5024842;28;20439;-80
2021/08/29 03:03:27;;;;;;;7.67;3.23;;;;;;;;;;5026177;28;20491;-79
2021/08/29 03:05:53;;;;;;;4.23;2.50;;;;;;;;;;5024038;28;20894;-79
2021/08/29 03:08:18;;;;;;;3.40;2.40;;;;;;;;;;5024631;28;20192;-79
2021/08/29 03:10:44;;;;;;;4.03;2.77;;;;;;;;;;5024935;28;20188;-79
2021/08/29 03:13:10;;;;;;;7.03;3.10;;;;;;;;;;5024735;28;20179;-79
2021/08/29 03:15:36;;;;;;;4.03;2.70;;;;;;;;;;5022501;28;20501;-80
2021/08/29 03:18:01;;;;;;;7.87;2.67;;;;;;;;;;5025928;28;20408;-79
2021/08/29 03:20:27;;;;;;;5.43;2.97;;;;;;;;;;5025084;28;20576;-80
2021/08/29 03:22:53;;;;;;;3.00;2.00;;;;;;;;;;5025469;28;20173;-80
2021/08/29 03:25:18;;;;;;;5.17;2.87;;;;;;;;;;5024257;28;20216;-79
2021/08/29 03:27:44;;;;;;;5.10;2.70;;;;;;;;;;5025430;28;20176;-79
2021/08/29 03:30:10;;;;;;;6.00;2.97;;;;;;;;;;5025984;28;20181;-79
2021/08/29 03:32:36;;;;;;;5.83;2.60;;;;;;;;;;5024585;28;20199;-79
2021/08/29 03:35:02;;;;;;;4.60;3.00;;;;;;;;;;5024286;28;20849;-79
2021/08/29 03:37:28;;;;;;;4.10;2.90;;;;;;;;;;5024964;28;20480;-79
2021/08/29 03:39:53;;;;;;;5.30;2.40;;;;;;;;;;5023970;28;20943;-80
2021/08/29 03:42:20;;;;;;;5.50;2.40;;;;;;;;;;5023354;28;20444;-80
2021/08/29 03:44:45;;;;;;;2.80;2.43;;;;;;;;;;5023246;28;20665;-80
2021/08/29 03:47:13;;;;;;;5.03;2.73;;;;;;;;;;5025362;28;20415;-79
2021/08/29 03:49:39;;;;;;;3.73;2.53;;;;;;;;;;5024194;28;20235;-79
2021/08/29 03:52:04;;;;;;;2.70;2.10;;;;;;;;;;5023892;28;20499;-79
2021/08/29 03:54:30;;;;;;;3.53;2.30;;;;;;;;;;5024925;28;20193;-79
2021/08/29 03:56:56;;;;;;;3.97;2.40;;;;;;;;;;5025485;28;20184;-79
2021/08/29 03:59:21;;;;;;;3.33;2.23;;;;;;;;;;5039811;28;20921;-80
2021/08/29 04:01:46;;;;;;;4.30;2.27;;;;;;;;;;5026169;28;20168;-79
2021/08/29 04:04:12;;;;;;;4.77;2.50;;;;;;;;;;5026239;28;20197;-79
2021/08/29 04:06:37;;;;;;;3.10;2.10;;;;;;;;;;5026174;28;20188;-79
2021/08/29 04:09:06;;;;;;;3.77;1.83;;;;;;;;;;5026253;28;20242;-79
2021/08/29 04:11:31;;;;;;;5.70;2.23;;;;;;;;;;5026151;28;20248;-79
2021/08/29 04:13:57;;;;;;;3.27;2.10;;;;;;;;;;5025322;28;20594;-79
2021/08/29 04:16:23;;;;;;;5.97;2.70;;;;;;;;;;5025019;28;20197;-79
2021/08/29 04:18:48;;;;;;;7.30;2.57;;;;;;;;;;5025809;28;20889;-79
2021/08/29 04:21:16;;;;;;;3.97;2.60;;;;;;;;;;5025137;28;20420;-79
2021/08/29 04:23:41;;;;;;;5.83;2.97;;;;;;;;;;5025688;28;20227;-79
2021/08/29 04:26:07;;;;;;;5.50;3.00;;;;;;;;;;5025011;28;20466;-79
2021/08/29 04:28:32;;;;;;;4.40;2.17;;;;;;;;;;5024964;28;20184;-79
2021/08/29 04:30:59;;;;;;;4.87;2.73;;;;;;;;;;5025670;28;20638;-79
2021/08/29 04:33:26;;;;;;;6.97;2.53;;;;;;;;;;5025006;28;20551;-79
2021/08/29 04:35:51;;;;;;;4.33;2.70;;;;;;;;;;5025249;28;20458;-79
2021/08/29 04:38:17;;;;;;;3.80;2.73;;;;;;;;;;5025602;28;20422;-79
2021/08/29 04:40:42;;;;;;;9.93;3.03;;;;;;;;;;5024357;28;20176;-79
2021/08/29 04:43:07;;;;;;;3.93;2.37;;;;;;;;;;5024603;28;20203;-79
2021/08/29 04:45:32;;;;;;;4.70;2.67;;;;;;;;;;5024490;28;20604;-80
2021/08/29 04:47:57;;;;;;;5.53;2.63;;;;;;;;;;5027574;28;20252;-80
2021/08/29 04:50:23;;;;;;;3.97;2.40;;;;;;;;;;5027761;28;21022;-80
2021/08/29 04:52:48;;;;;;;6.53;2.70;;;;;;;;;;5028509;28;20199;-80
2021/08/29 04:55:13;;;;;;;7.40;3.10;;;;;;;;;;5026173;28;20287;-79
2021/08/29 04:57:38;;;;;;;6.40;2.70;;;;;;;;;;5028208;28;20177;-79
2021/08/29 05:00:04;;;;;;;6.93;2.80;;;;;;;;;;5027501;28;20180;-79
2021/08/29 05:02:30;;;;;;;4.17;2.30;;;;;;;;;;5026643;28;20187;-78
2021/08/29 05:04:55;;;;;;;6.37;2.63;;;;;;;;;;5028306;28;20923;-79
2021/08/29 05:07:20;;;;;;;8.13;3.00;;;;;;;;;;5029908;28;20177;-79
2021/08/29 05:09:45;;;;;;;3.03;2.17;;;;;;;;;;5028270;28;20184;-79
2021/08/29 05:12:10;;;;;;;3.03;2.20;;;;;;;;;;5028222;28;20241;-78
2021/08/29 05:14:36;;;;;;;11.13;3.10;;;;;;;;;;5028861;28;20203;-78
2021/08/29 05:17:01;;;;;;;4.90;2.67;;;;;;;;;;5027407;28;20164;-79
2021/08/29 05:19:26;;;;;;;3.53;2.27;;;;;;;;;;5026955;28;20178;-79
2021/08/29 05:21:52;;;;;;;3.70;1.97;;;;;;;;;;5026993;28;20211;-80
2021/08/29 05:24:17;;;;;;;3.00;2.00;;;;;;;;;;5027745;28;20199;-80
2021/08/29 05:26:42;;;;;;;4.20;2.40;;;;;;;;;;5026875;28;20252;-80
2021/08/29 05:29:07;;;;;;;3.37;2.07;;;;;;;;;;5027543;28;20165;-80
2021/08/29 05:31:33;;;;;;;4.10;1.97;;;;;;;;;;5026297;28;20543;-80
2021/08/29 05:33:58;;;;;;;4.80;2.20;;;;;;;;;;5026848;28;20173;-80
2021/08/29 05:36:23;;;;;;;3.30;2.03;;;;;;;;;;5027832;28;20203;-80
2021/08/29 05:38:48;;;;;;;4.37;2.40;;;;;;;;;;5027472;28;20307;-80
2021/08/29 05:41:14;;;;;;;4.40;2.57;;;;;;;;;;5026399;28;20644;-80
2021/08/29 05:43:39;;;;;;;4.57;2.43;;;;;;;;;;5026659;28;20183;-80
2021/08/29 05:46:04;;;;;;;4.07;2.40;;;;;;;;;;5027081;28;20242;-80
2021/08/29 05:48:30;;;;;;;4.33;2.60;;;;;;;;;;5026186;28;20180;-81
2021/08/29 05:50:56;;;;;;;4.63;2.20;;;;;;;;;;5025236;28;20178;-80
2021/08/29 05:53:21;;;;;;;3.37;2.57;;;;;;;;;;5026011;28;20831;-80
2021/08/29 05:55:46;;;;;;;7.13;2.73;;;;;;;;;;5024953;28;20201;-80
2021/08/29 05:58:11;;;;;;;3.57;2.43;;;;;;;;;;5024827;28;20172;-81
2021/08/29 06:00:37;;;;;;;5.83;2.63;;;;;;;;;;5026183;28;20201;-81
2021/08/29 06:03:02;;;;;;;6.80;2.77;;;;;;;;;;5024721;28;20186;-81
2021/08/29 06:05:30;;;;;;;6.60;2.30;;;;;;;;;;5025349;28;20225;-81
2021/08/29 06:07:55;;;;;;;5.63;2.70;;;;;;;;;;5026270;28;20498;-80
2021/08/29 06:10:23;;;;;;;3.43;2.67;;;;;;;;;;5026303;28;20852;-81
2021/08/29 06:12:48;;;;;;;8.10;3.13;;;;;;;;;;5026963;28;20264;-81
2021/08/29 06:15:14;;;;;;;3.23;2.60;;;;;;;;;;5024279;28;20542;-81
2021/08/29 06:17:39;;;;;;;5.90;2.63;;;;;;;;;;5024748;28;20181;-81
2021/08/29 06:20:05;;;;;;;4.43;2.40;;;;;;;;;;5024742;28;20593;-81
2021/08/29 06:22:30;;;;;;;3.17;2.10;;;;;;;;;;5026529;28;21261;-81
2021/08/29 06:24:56;;;;;;;4.13;2.97;;;;;;;;;;5023251;28;20483;-80
2021/08/29 06:27:21;;;;;;;3.87;2.93;;;;;;;;;;5026543;28;21037;-80
2021/08/29 06:29:46;;;;;;;3.40;2.40;;;;;;;;;;5025167;28;20264;-80
2021/08/29 06:32:11;;;;;;;3.40;2.40;;;;;;;;;;5025546;28;20184;-80
2021/08/29 06:34:36;;;;;;;6.07;2.43;;;;;;;;;;5025741;28;20203;-80
2021/08/29 06:37:02;;;;;;;6.00;2.43;;;;;;;;;;5024053;28;20657;-80
2021/08/29 06:39:27;;;;;;;2.70;2.40;;;;;;;;;;5025963;28;20675;-80
2021/08/29 06:41:53;;;;;;;3.40;2.30;;;;;;;;;;5026202;28;20172;-80
2021/08/29 06:44:18;;;;;;;6.40;3.07;;;;;;;;;;5025184;28;20193;-81
2021/08/29 06:46:43;;;;;;;5.70;3.00;;;;;;;;;;5025248;28;20211;-80
2021/08/29 06:49:08;;;;;;;5.17;3.00;;;;;;;;;;5023722;28;20173;-81
2021/08/29 06:51:34;;;;;;;4.10;2.60;;;;;;;;;;5025680;28;20267;-81
2021/08/29 06:53:59;;;;;;;5.30;2.37;;;;;;;;;;5025392;28;20182;-81
2021/08/29 06:56:24;;;;;;;3.50;2.40;;;;;;;;;;5023353;28;20208;-81
2021/08/29 06:58:49;;;;;;;3.80;2.50;;;;;;;;;;5024548;28;20177;-81
2021/08/29 07:01:14;;;;;;;3.93;2.50;;;;;;;;;;5025933;28;20223;-81
2021/08/29 07:03:40;;;;;;;3.20;2.27;;;;;;;;;;5025464;28;20216;-81
2021/08/29 07:06:06;;;;;;;5.80;2.77;;;;;;;;;;5039499;28;20636;-81
2021/08/29 07:08:31;;;;;;;3.53;2.40;;;;;;;;;;5024319;28;20677;-81
2021/08/29 07:10:57;;;;;;;5.17;2.37;;;;;;;;;;5024194;28;20451;-81
2021/08/29 07:13:22;;;;;;;11.30;3.00;;;;;;;;;;5024788;28;20557;-80
2021/08/29 07:15:47;;;;;;;4.30;2.67;;;;;;;;;;5024644;28;20200;-81
2021/08/29 07:18:12;;;;;;;4.20;2.50;;;;;;;;;;5026101;28;20248;-80
2021/08/29 07:20:37;;;;;;;4.20;2.60;;;;;;;;;;5025354;28;20251;-80
2021/08/29 07:23:03;;;;;;;3.90;2.50;;;;;;;;;;5023450;28;20217;-81
2021/08/29 07:25:29;;;;;;;3.40;2.20;;;;;;;;;;5022920;28;20227;-81
2021/08/29 07:27:54;;;;;;;6.50;2.70;;;;;;;;;;5023530;28;20173;-81
2021/08/29 07:30:19;;;;;;;3.47;2.40;;;;;;;;;;5023623;28;20641;-81
2021/08/29 07:32:44;;;;;;;3.77;2.10;;;;;;;;;;5024416;28;20169;-80
2021/08/29 07:35:10;;;;;;;2.53;1.70;;;;;;;;;;5022940;28;20210;-81
2021/08/29 07:37:35;;;;;;;4.53;2.33;;;;;;;;;;5024450;28;20160;-80
2021/08/29 07:40:00;;;;;;;2.90;2.47;;;;;;;;;;5022660;28;20172;-81
2021/08/29 07:42:25;;;;;;;4.77;2.07;;;;;;;;;;5039425;28;20216;-81
2021/08/29 07:44:51;;;;;;;3.30;1.90;;;;;;;;;;5023582;28;20219;-81
2021/08/29 07:47:16;;;;;;;3.10;2.33;;;;;;;;;;5024369;28;20195;-81
2021/08/29 07:49:41;;;;;;;2.70;2.20;;;;;;;;;;5037302;28;20176;-81
2021/08/29 07:52:06;;;;;;;4.27;2.67;;;;;;;;;;5023123;28;20176;-81
2021/08/29 07:54:32;;;;;;;3.47;2.27;;;;;;;;;;5024468;28;20193;-81
2021/08/29 07:56:57;;;;;;;5.53;2.57;;;;;;;;;;5021623;28;20204;-81
2021/08/29 07:59:22;;;;;;;3.67;2.03;;;;;;;;;;5038693;28;20184;-81
2021/08/29 08:01:47;;;;;;;3.60;2.27;;;;;;;;;;5024115;28;20177;-81
2021/08/29 08:04:13;;;;;;;3.03;2.00;;;;;;;;;;5023047;28;20216;-81
2021/08/29 08:06:38;;;;;;;2.27;1.53;;;;;;;;;;5023178;28;20192;-81
2021/08/29 08:09:03;;;;;;;2.47;2.13;;;;;;;;;;5022643;28;20176;-81
2021/08/29 08:11:28;;;;;;;4.17;2.30;;;;;;;;;;5023412;28;20184;-81
2021/08/29 08:13:54;;;;;;;1.90;1.70;;;;;;;;;;5023784;28;20205;-81
2021/08/29 08:16:19;;;;;;;5.73;1.80;;;;;;;;;;5023310;28;20234;-81
2021/08/29 08:18:44;;;;;;;2.53;1.57;;;;;;;;;;5023543;28;20637;-81
2021/08/29 08:21:09;;;;;;;3.70;1.93;;;;;;;;;;5023396;28;20605;-81
2021/08/29 08:23:35;;;;;;;3.47;1.87;;;;;;;;;;5022826;28;20177;-81
2021/08/29 08:26:00;;;;;;;4.93;1.70;;;;;;;;;;5022671;28;20221;-81
2021/08/29 08:28:25;;;;;;;5.90;2.00;;;;;;;;;;5024927;28;20225;-81
2021/08/29 08:30:50;;;;;;;3.70;1.50;;;;;;;;;;5023858;28;20600;-81
2021/08/29 08:33:15;;;;;;;4.60;1.30;;;;;;;;;;5024708;28;20192;-81
2021/08/29 08:35:41;;;;;;;4.23;1.60;;;;;;;;;;5022530;28;20204;-81
2021/08/29 08:38:06;;;;;;;3.67;1.60;;;;;;;;;;5025268;28;20204;-81
2021/08/29 08:40:37;;;;;;;2.07;1.77;;;;;;;;;;5025322;28;20177;-81
2021/08/29 08:43:03;;;;;;;2.30;1.50;;;;;;;;;;5024482;28;20191;-81
2021/08/29 08:45:29;;;;;;;4.73;1.70;;;;;;;;;;5024760;28;20435;-81
2021/08/29 08:47:55;;;;;;;2.90;1.60;;;;;;;;;;5023987;28;20407;-81
2021/08/29 08:50:21;;;;;;;1.63;1.33;;;;;;;;;;5024757;28;20172;-81
2021/08/29 08:52:47;;;;;;;2.30;1.40;;;;;;;;;;5024628;28;20412;-81
2021/08/29 08:55:13;;;;;;;3.00;1.67;;;;;;;;;;5023333;28;20205;-81
2021/08/29 08:57:39;;;;;;;1.63;1.53;;;;;;;;;;5023060;28;20413;-81
2021/08/29 09:00:04;;;;;;;2.03;1.43;;;;;;;;;;5023663;28;20173;-81
2021/08/29 09:02:30;;;;;;;1.40;1.10;;;;;;;;;;5024266;28;20231;-81
2021/08/29 09:04:55;;;;;;;3.93;1.30;;;;;;;;;;5021427;28;20196;-81
2021/08/29 09:07:20;;;;;;;2.00;1.40;;;;;;;;;;5023142;28;20176;-81
2021/08/29 09:09:46;;;;;;;3.17;1.67;;;;;;;;;;5023167;28;20170;-81
2021/08/29 09:12:11;;;;;;;2.80;1.43;;;;;;;;;;5039211;28;20169;-81
2021/08/29 09:14:46;;;;;;;3.17;1.30;;;;;;;;;;5022488;28;20570;-81
2021/08/29 09:17:25;;;;;;;8.50;1.67;;;;;;;;;;5023438;28;20696;-81
2021/08/29 09:19:50;;;;;;;2.23;1.60;;;;;;;;;;5023312;28;20407;-81
2021/08/29 09:22:24;;;;;;;3.07;1.40;;;;;;;;;;5021827;28;20411;-80
2021/08/29 09:24:50;;;;;;;2.30;1.60;;;;;;;;;;5021610;28;20283;-81
2021/08/29 09:27:15;;;;;;;5.33;1.43;;;;;;;;;;5023286;28;20411;-80
2021/08/29 09:29:42;;;;;;;2.27;1.50;;;;;;;;;;5023475;28;20411;-80
2021/08/29 09:32:07;;;;;;;1.70;1.20;;;;;;;;;;5021921;28;20210;-80
2021/08/29 09:34:33;;;;;;;2.80;1.27;;;;;;;;;;5024438;28;20864;-81
2021/08/29 09:37:01;;;;;;;1.97;1.23;;;;;;;;;;5025011;28;20193;-81
2021/08/29 09:39:27;;;;;;;3.90;1.60;;;;;;;;;;5027317;28;20184;-81
2021/08/29 09:42:03;;;;;;;1.87;1.17;;;;;;;;;;5026491;28;20411;-81
2021/08/29 09:44:31;;;;;;;2.23;1.57;;;;;;;;;;5025461;28;20438;-81
2021/08/29 09:47:04;;;;;;;3.23;1.80;;;;;;;;;;5026191;28;20411;-81
2021/08/29 09:49:33;;;;;;;3.17;1.57;;;;;;;;;;5027256;28;20444;-81
2021/08/29 09:52:02;;;;;;;2.40;1.40;;;;;;;;;;5026977;28;20434;-81
2021/08/29 09:54:36;;;;;;;1.93;1.37;;;;;;;;;;5026064;28;20500;-81
2021/08/29 09:57:04;;;;;;;2.67;1.63;;;;;;;;;;5026748;28;20546;-81
2021/08/29 09:59:47;;;;;;;2.93;1.97;;;;;;;;;;5027061;28;20426;-81
2021/08/29 10:02:32;;;;;;;2.07;1.50;;;;;;;;;;5027525;28;20404;-81
2021/08/29 10:05:15;;;;;;;2.23;1.67;;;;;;;;;;5026238;28;20535;-81
2021/08/29 10:08:09;;;;;;;4.77;1.93;;;;;;;;;;5026734;28;20423;-81
2021/08/29 10:10:37;;;;;;;2.10;1.83;;;;;;;;;;5025218;28;20427;-81
2021/08/29 10:13:03;;;;;;;2.80;1.50;;;;;;;;;;5024551;28;20476;-80
2021/08/29 10:15:28;;;;;;;3.53;1.47;;;;;;;;;;5026454;28;20471;-81
2021/08/29 10:17:57;;;;;;;6.17;1.33;;;;;;;;;;5025419;28;20180;-81
2021/08/29 10:20:24;;;;;;;1.63;1.23;;;;;;;;;;5025603;28;20177;-81
2021/08/29 10:22:50;;;;;;;1.23;1.13;;;;;;;;;;5026282;28;20437;-81
2021/08/29 10:25:17;;;;;;;2.47;1.33;;;;;;;;;;5023866;28;20494;-81
2021/08/29 10:27:44;;;;;;;4.47;2.30;;;;;;;;;;5025337;28;20237;-81
2021/08/29 10:30:10;;;;;;;2.50;2.00;;;;;;;;;;5025515;28;20427;-81
2021/08/29 10:32:38;;;;;;;4.03;1.80;;;;;;;;;;5024723;28;20427;-81
2021/08/29 10:35:10;;;;;;;2.23;1.53;;;;;;;;;;5025191;28;20439;-81
2021/08/29 10:37:41;;;;;;;2.93;1.90;;;;;;;;;;5024565;28;20783;-81
2021/08/29 10:40:07;;;;;;;2.87;1.80;;;;;;;;;;5024925;28;20413;-81
2021/08/29 10:42:36;;;;;;;3.23;1.67;;;;;;;;;;5025216;28;20418;-81
2021/08/29 10:45:02;;;;;;;4.07;2.17;;;;;;;;;;5023712;28;20434;-81
2021/08/29 10:47:28;;;;;;;5.10;2.50;;;;;;;;;;5039848;28;20408;-81
2021/08/29 10:49:53;;;;;;;3.20;2.03;;;;;;;;;;5025715;28;20177;-80
2021/08/29 10:52:19;;;;;;;2.87;2.10;;;;;;;;;;5023887;28;20218;-81
2021/08/29 10:54:54;;;;;;;3.43;1.83;;;;;;;;;;5025034;28;20609;-81
2021/08/29 10:57:32;;;;;;;4.97;2.10;;;;;;;;;;5024343;28;20180;-81
2021/08/29 11:00:03;;;;;;;3.07;1.90;;;;;;;;;;5024541;28;20411;-81
2021/08/29 11:02:35;;;;;;;3.30;1.80;;;;;;;;;;5024268;28;20422;-81
2021/08/29 11:05:00;;;;;;;3.33;1.83;;;;;;;;;;5025248;28;20421;-81
2021/08/29 11:07:35;;;;;;;3.40;2.00;;;;;;;;;;5024147;28;20407;-81
2021/08/29 11:10:00;;;;;;;4.07;2.17;;;;;;;;;;5024077;28;20262;-81
2021/08/29 11:12:26;;;;;;;2.50;1.93;;;;;;;;;;5024951;28;20443;-81
2021/08/29 11:14:52;;;;;;;3.67;2.17;;;;;;;;;;5024566;28;20197;-80
2021/08/29 11:17:22;;;;;;;2.40;1.47;;;;;;;;;;5023097;28;20185;-81
2021/08/29 11:19:48;;;;;;;3.53;2.60;;;;;;;;;;5025003;28;20424;-80
2021/08/29 11:22:15;;;;;;;2.50;1.93;;;;;;;;;;5025506;28;20450;-80
2021/08/29 11:24:51;;;;;;;1.93;1.73;;;;;;;;;;5024346;28;20447;-80
2021/08/29 11:27:35;;;;;;;4.97;2.30;;;;;;;;;;5025226;28;20422;-80
2021/08/29 11:30:00;;;;;;;2.83;1.50;;;;;;;;;;5024821;28;20470;-80
2021/08/29 11:32:37;;;;;;;3.50;2.10;;;;;;;;;;5025619;28;20424;-80
2021/08/29 11:35:05;;;;;;;3.00;2.33;;;;;;;;;;5024092;28;20191;-80
2021/08/29 11:37:31;;;;;;;2.20;2.00;;;;;;;;;;5024843;28;20836;-81
2021/08/29 11:40:06;;;;;;;1.93;1.70;;;;;;;;;;5023676;28;20419;-80
2021/08/29 11:42:31;;;;;;;2.53;2.13;;;;;;;;;;5023577;28;20178;-80
2021/08/29 11:44:57;;;;;;;3.57;1.90;;;;;;;;;;5024264;28;20448;-80
2021/08/29 11:47:23;;;;;;;2.53;2.10;;;;;;;;;;5023570;28;20549;-80
2021/08/29 11:49:53;;;;;;;3.17;2.30;;;;;;;;;;5024386;28;20441;-80
2021/08/29 11:52:26;;;;;;;1.97;1.70;;;;;;;;;;5023601;28;20505;-80
2021/08/29 11:55:10;;;;;;;1.90;1.63;;;;;;;;;;5022714;28;20507;-80
2021/08/29 11:57:48;;;;;;;5.07;2.30;;;;;;;;;;5023732;28;20395;-80
2021/08/29 12:00:14;;;;;;;2.20;2.00;;;;;;;;;;5020675;28;20842;-81
2021/08/29 12:02:42;;;;;;;3.37;2.13;;;;;;;;;;5023157;28;20431;-80
2021/08/29 12:05:11;;;;;;;2.30;1.83;;;;;;;;;;5024302;28;20683;-80
2021/08/29 12:07:37;;;;;;;2.90;1.60;;;;;;;;;;5023338;28;20509;-80
2021/08/29 12:10:03;;;;;;;2.10;1.80;;;;;;;;;;5024454;28;20437;-80
2021/08/29 12:12:29;;;;;;;1.90;1.70;;;;;;;;;;5023617;28;20414;-81
2021/08/29 12:14:55;;;;;;;3.57;1.90;;;;;;;;;;5023436;28;20419;-80
2021/08/29 12:17:21;;;;;;;4.77;1.87;;;;;;;;;;5022012;28;21047;-80
2021/08/29 12:19:50;;;;;;;2.83;1.90;;;;;;;;;;5022571;28;20652;-80
2021/08/29 12:22:16;;;;;;;2.50;2.07;;;;;;;;;;5022630;28;20201;-80
2021/08/29 12:24:42;;;;;;;2.83;2.37;;;;;;;;;;5023567;28;20546;-80
2021/08/29 12:27:12;;;;;;;4.20;2.67;;;;;;;;;;5022449;28;20179;-80
2021/08/29 12:29:44;;;;;;;2.13;1.93;;;;;;;;;;5022348;28;20411;-80
2021/08/29 12:32:10;;;;;;;5.33;2.53;;;;;;;;;;5022193;28;20910;-80
2021/08/29 12:34:36;;;;;;;2.50;1.90;;;;;;;;;;5022853;28;20450;-80
2021/08/29 12:37:08;;;;;;;2.73;2.20;;;;;;;;;;5023604;28;20455;-80
2021/08/29 12:39:33;;;;;;;3.00;2.20;;;;;;;;;;5022494;28;20493;-80
2021/08/29 12:42:15;;;;;;;3.97;2.37;;;;;;;;;;5024521;28;20399;-80
2021/08/29 12:44:40;;;;;;;2.37;2.17;;;;;;;;;;5021904;28;20224;-80
2021/08/29 12:47:06;;;;;;;2.97;2.37;;;;;;;;;;5023519;28;20428;-80
2021/08/29 12:49:31;;;;;;;2.63;2.00;;;;;;;;;;5023232;28;20177;-80
2021/08/29 12:51:56;;;;;;;5.20;2.60;;;;;;;;;;5022668;28;20230;-80
2021/08/29 12:54:22;;;;;;;3.87;2.67;;;;;;;;;;5023443;28;20204;-80
2021/08/29 12:56:51;;;;;;;2.60;2.20;;;;;;;;;;5023783;28;20231;-80
2021/08/29 12:59:24;;;;;;;5.30;2.90;;;;;;;;;;5022773;28;20581;-80
2021/08/29 13:01:52;;;;;;;3.43;2.57;;;;;;;;;;5022693;28;20466;-80
2021/08/29 13:04:22;;;;;;;3.00;2.43;;;;;;;;;;5023752;28;20513;-80
2021/08/29 13:06:59;;;;;;;5.93;3.07;;;;;;;;;;5023591;28;20930;-80
2021/08/29 13:09:24;;;;;;;5.40;2.97;;;;;;;;;;5027210;28;20412;-80
2021/08/29 13:11:50;;;;;;;3.40;2.50;;;;;;;;;;5042906;28;20430;-80
2021/08/29 13:14:25;;;;;;;4.73;2.37;;;;;;;;;;5027268;28;20207;-80
2021/08/29 13:16:51;;;;;;;3.23;2.40;;;;;;;;;;5025831;28;20250;-80
2021/08/29 13:19:22;;;;;;;4.20;2.50;;;;;;;;;;5026724;28;20949;-80
2021/08/29 13:21:54;;;;;;;6.90;2.87;;;;;;;;;;5026948;28;20165;-80
2021/08/29 13:24:27;;;;;;;4.40;3.23;;;;;;;;;;5026405;28;20432;-80
2021/08/29 13:26:53;;;;;;;4.40;3.37;;;;;;;;;;5025962;28;20471;-80
2021/08/29 13:29:18;;;;;;;4.90;3.37;;;;;;;;;;5026182;28;21099;-80
2021/08/29 13:31:43;;;;;;;3.67;3.00;;;;;;;;;;5026293;28;20414;-80
2021/08/29 13:34:09;;;;;;;3.53;3.20;;;;;;;;;;5025927;28;20180;-80
2021/08/29 13:36:41;;;;;;;3.30;2.73;;;;;;;;;;5025858;28;20657;-80
2021/08/29 13:39:10;;;;;;;5.90;2.80;;;;;;;;;;5025558;28;20177;-80
2021/08/29 13:41:35;;;;;;;3.23;2.50;;;;;;;;;;5025736;28;20878;-80
2021/08/29 13:44:01;;;;;;;6.83;3.20;;;;;;;;;;5025856;28;20435;-80
2021/08/29 13:46:30;;;;;;;4.57;2.90;;;;;;;;;;5025660;28;20656;-80
2021/08/29 13:48:56;;;;;;;6.17;3.30;;;;;;;;;;5026224;28;20176;-80
2021/08/29 13:51:21;;;;;;;2.70;2.50;;;;;;;;;;5025960;28;20416;-80
2021/08/29 13:53:50;;;;;;;3.77;3.20;;;;;;;;;;5025892;28;20705;-80
2021/08/29 13:56:16;;;;;;;6.13;4.13;;;;;;;;;;5025089;28;20209;-80
2021/08/29 13:58:41;;;;;;;4.23;3.43;;;;;;;;;;5025085;28;20430;-80
2021/08/29 14:01:06;;;;;;;4.10;3.07;;;;;;;;;;5025949;28;20177;-80
2021/08/29 14:03:32;;;;;;;5.13;3.47;;;;;;;;;;5025177;28;20180;-80
2021/08/29 14:05:57;;;;;;;5.13;3.60;;;;;;;;;;5024665;28;20295;-80
2021/08/29 14:08:23;;;;;;;5.20;3.80;;;;;;;;;;5024955;28;20653;-80
2021/08/29 14:10:48;;;;;;;4.13;3.07;;;;;;;;;;5024891;28;20188;-80
2021/08/29 14:13:13;;;;;;;3.87;3.50;;;;;;;;;;5024277;28;20235;-79
2021/08/29 14:15:38;;;;;;;5.53;3.53;;;;;;;;;;5035297;28;20672;-80
2021/08/29 14:18:04;;;;;;;4.90;3.60;;;;;;;;;;5007219;28;20629;-80
2021/08/29 14:20:29;;;;;;;8.43;3.43;;;;;;;;;;5023640;28;20549;-80
2021/08/29 14:22:55;;;;;;;5.73;3.70;;;;;;;;;;5004168;28;20188;-80
2021/08/29 14:25:21;;;;;;;3.70;3.40;;;;;;;;;;5015044;28;20219;-80
2021/08/29 14:27:51;;;;;;;6.43;3.93;;;;;;;;;;4999060;28;20188;-80
2021/08/29 14:30:20;;;;;;;5.00;3.93;;;;;;;;;;5017092;28;20242;-80
2021/08/29 14:32:47;;;;;;;5.57;4.30;;;;;;;;;;5022050;28;20514;-80
2021/08/29 14:35:16;;;;;;;5.33;3.67;;;;;;;;;;5024311;28;20804;-80
2021/08/29 14:37:42;;;;;;;7.60;4.53;;;;;;;;;;5022786;28;20765;-80
2021/08/29 14:40:08;;;;;;;9.53;4.57;;;;;;;;;;5023120;28;20953;-79